sensor_id;sensor_type;location;lat;lon;timestamp;pressure;altitude;pressure_sealevel;temperature;humidity
54194;BME280;40102;50.906;6.972;2023-05-09T00:00:36;101162.69;;;15.22;97.34
54194;BME280;40102;50.906;6.972;2023-05-09T00:03:02;101165.94;;;15.27;97.31
54194;BME280;40102;50.906;6.972;2023-05-09T00:05:30;101158.16;;;15.22;97.19
54194;BME280;40102;50.906;6.972;2023-05-09T00:07:55;101150.28;;;15.19;97.10
54194;BME280;40102;50.906;6.972;2023-05-09T00:10:20;101152.00;;;15.20;97.34
54194;BME280;40102;50.906;6.972;2023-05-09T00:12:46;101153.75;;;15.21;97.10
54194;BME280;40102;50.906;6.972;2023-05-09T00:15:13;101149.31;;;15.20;97.37
54194;BME280;40102;50.906;6.972;2023-05-09T00:17:39;101146.94;;;15.16;97.61
54194;BME280;40102;50.906;6.972;2023-05-09T00:20:07;101152.88;;;15.21;97.61
54194;BME280;40102;50.906;6.972;2023-05-09T00:22:35;101138.19;;;15.12;97.44
54194;BME280;40102;50.906;6.972;2023-05-09T00:25:01;101144.56;;;15.11;98.25
54194;BME280;40102;50.906;6.972;2023-05-09T00:27:26;101144.75;;;15.08;98.02
54194;BME280;40102;50.906;6.972;2023-05-09T00:29:54;101143.03;;;15.07;98.42
54194;BME280;40102;50.906;6.972;2023-05-09T00:32:20;101135.25;;;15.03;98.23
54194;BME280;40102;50.906;6.972;2023-05-09T00:34:45;101142.16;;;15.07;98.54
54194;BME280;40102;50.906;6.972;2023-05-09T00:37:10;101127.94;;;15.05;98.31
54194;BME280;40102;50.906;6.972;2023-05-09T00:39:35;101126.97;;;15.06;98.74
54194;BME280;40102;50.906;6.972;2023-05-09T00:42:01;101125.25;;;15.05;98.34
54194;BME280;40102;50.906;6.972;2023-05-09T00:44:27;101130.53;;;15.06;98.83
54194;BME280;40102;50.906;6.972;2023-05-09T00:46:53;101127.53;;;15.11;98.36
54194;BME280;40102;50.906;6.972;2023-05-09T00:49:18;101121.28;;;15.10;98.22
54194;BME280;40102;50.906;6.972;2023-05-09T00:51:43;101119.53;;;15.09;98.26
54194;BME280;40102;50.906;6.972;2023-05-09T00:54:09;101116.97;;;15.08;98.38
54194;BME280;40102;50.906;6.972;2023-05-09T00:56:35;101115.13;;;15.08;98.47
54194;BME280;40102;50.906;6.972;2023-05-09T00:59:01;101118.56;;;15.10;98.36
54194;BME280;40102;50.906;6.972;2023-05-09T01:01:27;101117.59;;;15.11;98.44
54194;BME280;40102;50.906;6.972;2023-05-09T01:03:52;101113.63;;;15.17;98.62
54194;BME280;40102;50.906;6.972;2023-05-09T01:06:26;101113.97;;;15.38;98.86
54194;BME280;40102;50.906;6.972;2023-05-09T01:11:42;101108.59;;;15.76;96.90
54194;BME280;40102;50.906;6.972;2023-05-09T01:17:04;101098.00;;;15.98;93.42
54194;BME280;40102;50.906;6.972;2023-05-09T01:19:48;101097.69;;;15.90;91.72
54194;BME280;40102;50.906;6.972;2023-05-09T01:22:16;101095.22;;;15.74;92.46
54194;BME280;40102;50.906;6.972;2023-05-09T01:25:05;101100.19;;;15.68;93.67
54194;BME280;40102;50.906;6.972;2023-05-09T01:28:06;101092.84;;;15.70;93.77
54194;BME280;40102;50.906;6.972;2023-05-09T01:30:33;101101.91;;;15.69;93.56
54194;BME280;40102;50.906;6.972;2023-05-09T01:33:05;101092.63;;;15.73;93.87
54194;BME280;40102;50.906;6.972;2023-05-09T01:35:32;101091.34;;;15.78;93.71
54194;BME280;40102;50.906;6.972;2023-05-09T01:38:01;101091.13;;;15.81;93.23
54194;BME280;40102;50.906;6.972;2023-05-09T01:40:30;101092.63;;;15.85;93.10
54194;BME280;40102;50.906;6.972;2023-05-09T01:43:00;101090.69;;;15.87;92.07
54194;BME280;40102;50.906;6.972;2023-05-09T01:45:27;101087.03;;;15.76;91.93
54194;BME280;40102;50.906;6.972;2023-05-09T01:47:55;101078.84;;;15.65;92.41
54194;BME280;40102;50.906;6.972;2023-05-09T01:50:21;101077.88;;;15.53;93.43
54194;BME280;40102;50.906;6.972;2023-05-09T01:52:48;101087.91;;;15.38;94.75
54194;BME280;40102;50.906;6.972;2023-05-09T01:55:16;101084.22;;;15.27;96.14
54194;BME280;40102;50.906;6.972;2023-05-09T01:57:44;101079.56;;;15.16;96.33
54194;BME280;40102;50.906;6.972;2023-05-09T02:00:10;101067.81;;;15.04;97.13
54194;BME280;40102;50.906;6.972;2023-05-09T02:02:37;101075.91;;;15.04;97.96
54194;BME280;40102;50.906;6.972;2023-05-09T02:05:04;101076.88;;;15.03;97.81
54194;BME280;40102;50.906;6.972;2023-05-09T02:07:31;101075.44;;;14.98;97.54
54194;BME280;40102;50.906;6.972;2023-05-09T02:09:57;101074.59;;;14.97;97.83
54194;BME280;40102;50.906;6.972;2023-05-09T02:12:24;101072.09;;;14.94;97.99
54194;BME280;40102;50.906;6.972;2023-05-09T02:14:49;101075.75;;;14.93;97.66
54194;BME280;40102;50.906;6.972;2023-05-09T02:17:15;101068.00;;;14.88;97.88
54194;BME280;40102;50.906;6.972;2023-05-09T02:19:42;101075.75;;;14.93;97.96
54194;BME280;40102;50.906;6.972;2023-05-09T02:22:08;101073.28;;;14.90;98.32
54194;BME280;40102;50.906;6.972;2023-05-09T02:24:33;101066.28;;;14.87;97.93
54194;BME280;40102;50.906;6.972;2023-05-09T02:27:01;101067.25;;;14.86;98.26
54194;BME280;40102;50.906;6.972;2023-05-09T02:29:31;101060.03;;;14.87;98.42
54194;BME280;40102;50.906;6.972;2023-05-09T02:32:07;101067.34;;;14.85;98.64
54194;BME280;40102;50.906;6.972;2023-05-09T02:34:36;101060.44;;;14.81;99.30
54194;BME280;40102;50.906;6.972;2023-05-09T02:37:03;101067.75;;;14.79;99.41
54194;BME280;40102;50.906;6.972;2023-05-09T02:39:30;101066.78;;;14.80;99.24
54194;BME280;40102;50.906;6.972;2023-05-09T02:41:56;101062.16;;;14.82;99.38
54194;BME280;40102;50.906;6.972;2023-05-09T02:44:21;101052.38;;;14.81;99.44
54194;BME280;40102;50.906;6.972;2023-05-09T02:46:46;101052.69;;;14.76;99.33
54194;BME280;40102;50.906;6.972;2023-05-09T02:49:11;101049.88;;;14.78;99.41
54194;BME280;40102;50.906;6.972;2023-05-09T02:51:37;101047.50;;;14.73;99.44
54194;BME280;40102;50.906;6.972;2023-05-09T02:54:03;101042.78;;;14.77;99.97
54194;BME280;40102;50.906;6.972;2023-05-09T02:56:28;101042.97;;;14.74;99.71
54194;BME280;40102;50.906;6.972;2023-05-09T02:58:54;101043.94;;;14.73;100.00
54194;BME280;40102;50.906;6.972;2023-05-09T03:01:19;101044.91;;;14.72;100.00
54194;BME280;40102;50.906;6.972;2023-05-09T03:03:44;101040.69;;;14.68;100.00
54194;BME280;40102;50.906;6.972;2023-05-09T03:06:10;101030.91;;;14.67;100.00
54194;BME280;40102;50.906;6.972;2023-05-09T03:08:36;101033.47;;;14.68;100.00
54194;BME280;40102;50.906;6.972;2023-05-09T03:11:01;101033.38;;;14.70;100.00
54194;BME280;40102;50.906;6.972;2023-05-09T03:13:26;101031.88;;;14.66;100.00
54194;BME280;40102;50.906;6.972;2023-05-09T03:15:51;101034.25;;;14.70;100.00
54194;BME280;40102;50.906;6.972;2023-05-09T03:18:17;101028.84;;;14.70;100.00
54194;BME280;40102;50.906;6.972;2023-05-09T03:20:43;101027.03;;;14.71;100.00
54194;BME280;40102;50.906;6.972;2023-05-09T03:23:08;101025.97;;;14.73;100.00
54194;BME280;40102;50.906;6.972;2023-05-09T03:25:34;101023.16;;;14.75;100.00
54194;BME280;40102;50.906;6.972;2023-05-09T03:27:59;101022.28;;;14.74;100.00
54194;BME280;40102;50.906;6.972;2023-05-09T03:30:25;101024.88;;;14.76;100.00
54194;BME280;40102;50.906;6.972;2023-05-09T03:32:51;101021.31;;;14.75;100.00
54194;BME280;40102;50.906;6.972;2023-05-09T03:35:16;101023.38;;;14.72;100.00
54194;BME280;40102;50.906;6.972;2023-05-09T03:37:42;101024.03;;;14.75;100.00
54194;BME280;40102;50.906;6.972;2023-05-09T03:40:07;101014.13;;;14.76;100.00
54194;BME280;40102;50.906;6.972;2023-05-09T03:42:33;101018.84;;;14.72;100.00
54194;BME280;40102;50.906;6.972;2023-05-09T03:44:58;101013.66;;;14.69;100.00
54194;BME280;40102;50.906;6.972;2023-05-09T03:47:26;101003.97;;;14.67;100.00
54194;BME280;40102;50.906;6.972;2023-05-09T03:49:51;101008.94;;;14.73;100.00
54194;BME280;40102;50.906;6.972;2023-05-09T03:52:17;101001.72;;;14.73;100.00
54194;BME280;40102;50.906;6.972;2023-05-09T03:54:43;101008.72;;;14.76;100.00
54194;BME280;40102;50.906;6.972;2023-05-09T03:57:08;101000.44;;;14.79;100.00
54194;BME280;40102;50.906;6.972;2023-05-09T03:59:33;101000.03;;;14.85;100.00
54194;BME280;40102;50.906;6.972;2023-05-09T04:01:58;100998.84;;;14.89;100.00
54194;BME280;40102;50.906;6.972;2023-05-09T04:04:24;100992.81;;;14.85;100.00
54194;BME280;40102;50.906;6.972;2023-05-09T04:06:49;100992.56;;;14.76;100.00
54194;BME280;40102;50.906;6.972;2023-05-09T04:09:15;100989.88;;;14.76;100.00
54194;BME280;40102;50.906;6.972;2023-05-09T04:11:40;100992.56;;;14.76;100.00
54194;BME280;40102;50.906;6.972;2023-05-09T04:14:05;100980.19;;;14.73;100.00
54194;BME280;40102;50.906;6.972;2023-05-09T04:16:31;100975.44;;;14.77;100.00
54194;BME280;40102;50.906;6.972;2023-05-09T04:18:57;100977.63;;;14.84;100.00
54194;BME280;40102;50.906;6.972;2023-05-09T04:21:22;100982.88;;;14.86;100.00
54194;BME280;40102;50.906;6.972;2023-05-09T04:23:47;100965.75;;;14.87;100.00
54194;BME280;40102;50.906;6.972;2023-05-09T04:26:13;100973.75;;;14.88;100.00
54194;BME280;40102;50.906;6.972;2023-05-09T04:28:39;100974.91;;;14.84;100.00
54194;BME280;40102;50.906;6.972;2023-05-09T04:31:05;100976.97;;;14.81;100.00
54194;BME280;40102;50.906;6.972;2023-05-09T04:33:30;100965.75;;;14.74;100.00
54194;BME280;40102;50.906;6.972;2023-05-09T04:35:56;100966.63;;;14.75;100.00
54194;BME280;40102;50.906;6.972;2023-05-09T04:38:22;100969.97;;;14.78;100.00
54194;BME280;40102;50.906;6.972;2023-05-09T04:40:47;100968.88;;;14.81;100.00
54194;BME280;40102;50.906;6.972;2023-05-09T04:43:13;100962.31;;;14.72;100.00
54194;BME280;40102;50.906;6.972;2023-05-09T04:45:38;100961.34;;;14.73;100.00
54194;BME280;40102;50.906;6.972;2023-05-09T04:48:04;100966.19;;;14.81;100.00
54194;BME280;40102;50.906;6.972;2023-05-09T04:50:29;100960.91;;;14.79;100.00
54194;BME280;40102;50.906;6.972;2023-05-09T04:52:54;100960.16;;;14.77;100.00
54194;BME280;40102;50.906;6.972;2023-05-09T04:55:20;100959.19;;;14.78;100.00
54194;BME280;40102;50.906;6.972;2023-05-09T04:57:45;100968.88;;;14.81;100.00
54194;BME280;40102;50.906;6.972;2023-05-09T05:00:11;100966.41;;;14.78;100.00
54194;BME280;40102;50.906;6.972;2023-05-09T05:02:37;100963.94;;;14.75;100.00
54194;BME280;40102;50.906;6.972;2023-05-09T05:05:03;100968.44;;;14.74;100.00
54194;BME280;40102;50.906;6.972;2023-05-09T05:07:28;100965.09;;;14.71;100.00
54194;BME280;40102;50.906;6.972;2023-05-09T05:09:54;100958.84;;;14.70;100.00
54194;BME280;40102;50.906;6.972;2023-05-09T05:12:19;100957.03;;;14.71;100.00
54194;BME280;40102;50.906;6.972;2023-05-09T05:14:45;100956.38;;;14.67;100.00
54194;BME280;40102;50.906;6.972;2023-05-09T05:17:11;100954.66;;;14.66;100.00
54194;BME280;40102;50.906;6.972;2023-05-09T05:19:36;100949.91;;;14.70;100.00
54194;BME280;40102;50.906;6.972;2023-05-09T05:22:01;100943.88;;;14.66;100.00
54194;BME280;40102;50.906;6.972;2023-05-09T05:24:27;100938.38;;;14.68;100.00
54194;BME280;40102;50.906;6.972;2023-05-09T05:26:52;100937.84;;;14.75;100.00
54194;BME280;40102;50.906;6.972;2023-05-09T05:29:17;100936.78;;;14.78;100.00
54194;BME280;40102;50.906;6.972;2023-05-09T05:31:43;100935.81;;;14.79;100.00
54194;BME280;40102;50.906;6.972;2023-05-09T05:34:08;100932.91;;;14.82;100.00
54194;BME280;40102;50.906;6.972;2023-05-09T05:36:33;100931.84;;;14.84;100.00
54194;BME280;40102;50.906;6.972;2023-05-09T05:38:59;100921.16;;;14.83;100.00
54194;BME280;40102;50.906;6.972;2023-05-09T05:41:24;100926.22;;;14.87;100.00
54194;BME280;40102;50.906;6.972;2023-05-09T05:43:51;100921.06;;;14.84;100.00
54194;BME280;40102;50.906;6.972;2023-05-09T05:46:16;100924.28;;;14.89;100.00
54194;BME280;40102;50.906;6.972;2023-05-09T05:48:41;100915.13;;;14.92;100.00
54194;BME280;40102;50.906;6.972;2023-05-09T05:51:06;100916.63;;;14.96;100.00
54194;BME280;40102;50.906;6.972;2023-05-09T05:53:32;100916.75;;;14.95;100.00
54194;BME280;40102;50.906;6.972;2023-05-09T05:55:57;100912.00;;;14.98;100.00
54194;BME280;40102;50.906;6.972;2023-05-09T05:58:23;100918.69;;;15.05;100.00
54194;BME280;40102;50.906;6.972;2023-05-09T06:00:51;100913.94;;;15.09;100.00
54194;BME280;40102;50.906;6.972;2023-05-09T06:03:17;100905.09;;;15.07;100.00
54194;BME280;40102;50.906;6.972;2023-05-09T06:05:42;100911.78;;;15.14;100.00
54194;BME280;40102;50.906;6.972;2023-05-09T06:08:10;100912.19;;;15.20;100.00
54194;BME280;40102;50.906;6.972;2023-05-09T06:10:36;100907.66;;;15.21;100.00
54194;BME280;40102;50.906;6.972;2023-05-09T06:13:01;100895.81;;;15.23;100.00
54194;BME280;40102;50.906;6.972;2023-05-09T06:15:26;100896.97;;;15.32;100.00
54194;BME280;40102;50.906;6.972;2023-05-09T06:17:52;100899.44;;;15.35;100.00
54194;BME280;40102;50.906;6.972;2023-05-09T06:20:18;100890.28;;;15.38;100.00
54194;BME280;40102;50.906;6.972;2023-05-09T06:22:43;100891.25;;;15.37;100.00
54194;BME280;40102;50.906;6.972;2023-05-09T06:25:08;100891.78;;;15.42;100.00
54194;BME280;40102;50.906;6.972;2023-05-09T06:27:34;100895.13;;;15.45;100.00
54194;BME280;40102;50.906;6.972;2023-05-09T06:29:59;100897.34;;;15.51;100.00
54194;BME280;40102;50.906;6.972;2023-05-09T06:32:24;100893.69;;;15.52;99.92
54194;BME280;40102;50.906;6.972;2023-05-09T06:34:50;100889.78;;;15.57;99.78
54194;BME280;40102;50.906;6.972;2023-05-09T06:37:16;100891.44;;;15.59;99.38
54194;BME280;40102;50.906;6.972;2023-05-09T06:39:42;100882.00;;;15.65;99.60
54194;BME280;40102;50.906;6.972;2023-05-09T06:42:07;100869.50;;;15.64;99.49
54194;BME280;40102;50.906;6.972;2023-05-09T06:44:33;100874.19;;;15.73;99.77
54194;BME280;40102;50.906;6.972;2023-05-09T06:46:58;100865.88;;;15.76;99.32
54194;BME280;40102;50.906;6.972;2023-05-09T06:49:25;100870.94;;;15.80;99.58
54194;BME280;40102;50.906;6.972;2023-05-09T06:51:50;100867.03;;;15.84;99.01
54194;BME280;40102;50.906;6.972;2023-05-09T06:54:16;100868.06;;;15.95;98.19
54194;BME280;40102;50.906;6.972;2023-05-09T06:56:41;100863.91;;;16.02;97.39
54194;BME280;40102;50.906;6.972;2023-05-09T06:59:07;100854.59;;;16.06;96.30
54194;BME280;40102;50.906;6.972;2023-05-09T07:01:32;100846.28;;;16.09;95.19
54194;BME280;40102;50.906;6.972;2023-05-09T07:03:57;100849.47;;;16.14;91.63
54194;BME280;40102;50.906;6.972;2023-05-09T07:06:23;100844.59;;;16.19;89.49
54194;BME280;40102;50.906;6.972;2023-05-09T07:08:49;100839.47;;;16.27;88.57
54194;BME280;40102;50.906;6.972;2023-05-09T07:11:14;100828.94;;;16.35;88.25
54194;BME280;40102;50.906;6.972;2023-05-09T07:13:40;100836.06;;;16.36;87.21
54194;BME280;40102;50.906;6.972;2023-05-09T07:16:05;100831.03;;;16.43;85.55
54194;BME280;40102;50.906;6.972;2023-05-09T07:18:31;100830.91;;;16.44;85.64
54194;BME280;40102;50.906;6.972;2023-05-09T07:20:56;100819.00;;;16.47;86.92
54194;BME280;40102;50.906;6.972;2023-05-09T07:23:22;100817.56;;;16.54;86.66
54194;BME280;40102;50.906;6.972;2023-05-09T07:25:47;100821.47;;;16.61;86.71
54194;BME280;40102;50.906;6.972;2023-05-09T07:28:13;100819.53;;;16.63;85.28
54194;BME280;40102;50.906;6.972;2023-05-09T07:30:38;100806.66;;;16.67;85.13
54194;BME280;40102;50.906;6.972;2023-05-09T07:33:03;100809.88;;;16.72;84.77
54194;BME280;40102;50.906;6.972;2023-05-09T07:35:29;100803.72;;;16.70;84.91
54194;BME280;40102;50.906;6.972;2023-05-09T07:37:54;100803.72;;;16.70;85.44
54194;BME280;40102;50.906;6.972;2023-05-09T07:40:19;100798.81;;;16.75;85.69
54194;BME280;40102;50.906;6.972;2023-05-09T07:42:45;100794.03;;;16.78;85.19
54194;BME280;40102;50.906;6.972;2023-05-09T07:45:16;100801.28;;;16.78;84.58
54194;BME280;40102;50.906;6.972;2023-05-09T07:47:42;100810.84;;;16.82;83.00
54194;BME280;40102;50.906;6.972;2023-05-09T07:50:07;100804.22;;;16.86;82.67
54194;BME280;40102;50.906;6.972;2023-05-09T07:52:33;100792.31;;;16.77;82.59
54194;BME280;40102;50.906;6.972;2023-05-09T07:54:58;100796.22;;;16.84;82.40
54194;BME280;40102;50.906;6.972;2023-05-09T07:57:23;100794.16;;;16.88;82.11
54194;BME280;40102;50.906;6.972;2023-05-09T07:59:49;100801.75;;;16.94;82.45
54194;BME280;40102;50.906;6.972;2023-05-09T08:02:14;100791.06;;;16.93;81.72
54194;BME280;40102;50.906;6.972;2023-05-09T08:04:39;100791.94;;;16.93;78.11
54194;BME280;40102;50.906;6.972;2023-05-09T08:07:05;100800.53;;;16.98;75.66
54194;BME280;40102;50.906;6.972;2023-05-09T08:09:31;100787.00;;;16.98;74.99
54194;BME280;40102;50.906;6.972;2023-05-09T08:11:56;100781.72;;;16.97;75.24
54194;BME280;40102;50.906;6.972;2023-05-09T08:14:22;100767.97;;;17.00;76.07
54194;BME280;40102;50.906;6.972;2023-05-09T08:16:48;100754.34;;;16.90;75.49
54194;BME280;40102;50.906;6.972;2023-05-09T08:19:13;100765.28;;;17.00;76.02
54194;BME280;40102;50.906;6.972;2023-05-09T08:21:39;100754.59;;;16.98;75.43
54194;BME280;40102;50.906;6.972;2023-05-09T08:24:04;100760.72;;;17.00;73.10
54194;BME280;40102;50.906;6.972;2023-05-09T08:26:32;100754.09;;;17.04;72.79
54194;BME280;40102;50.906;6.972;2023-05-09T08:28:59;100751.88;;;17.09;72.05
54194;BME280;40102;50.906;6.972;2023-05-09T08:31:28;100749.16;;;17.09;70.85
54194;BME280;40102;50.906;6.972;2023-05-09T08:33:53;100740.06;;;17.10;71.71
54194;BME280;40102;50.906;6.972;2023-05-09T08:36:18;100731.44;;;17.16;72.16
54194;BME280;40102;50.906;6.972;2023-05-09T08:38:44;100743.59;;;17.22;72.31
54194;BME280;40102;50.906;6.972;2023-05-09T08:41:09;100732.41;;;17.27;72.02
54194;BME280;40102;50.906;6.972;2023-05-09T08:43:35;100737.31;;;17.33;71.05
54194;BME280;40102;50.906;6.972;2023-05-09T08:46:09;100725.63;;;17.32;70.40
54194;BME280;40102;50.906;6.972;2023-05-09T08:48:35;100728.53;;;17.40;66.95
54194;BME280;40102;50.906;6.972;2023-05-09T08:51:04;100720.53;;;17.50;66.73
54194;BME280;40102;50.906;6.972;2023-05-09T08:53:30;100710.81;;;17.47;67.65
54194;BME280;40102;50.906;6.972;2023-05-09T08:55:58;100715.84;;;17.52;68.87
54194;BME280;40102;50.906;6.972;2023-05-09T08:58:24;100710.31;;;17.54;69.58
54194;BME280;40102;50.906;6.972;2023-05-09T09:00:49;100711.88;;;17.56;69.41
54194;BME280;40102;50.906;6.972;2023-05-09T09:03:15;100704.34;;;17.71;71.07
54194;BME280;40102;50.906;6.972;2023-05-09T09:05:42;100701.63;;;17.71;68.02
54194;BME280;40102;50.906;6.972;2023-05-09T09:08:09;100703.56;;;17.80;68.82
54194;BME280;40102;50.906;6.972;2023-05-09T09:10:39;100706.31;;;17.90;68.40
54194;BME280;40102;50.906;6.972;2023-05-09T09:13:04;100703.63;;;17.90;66.45
54194;BME280;40102;50.906;6.972;2023-05-09T09:15:34;100691.75;;;17.81;65.71
54194;BME280;40102;50.906;6.972;2023-05-09T09:18:05;100686.94;;;17.85;66.71
54194;BME280;40102;50.906;6.972;2023-05-09T09:20:32;100688.38;;;17.89;65.47
54194;BME280;40102;50.906;6.972;2023-05-09T09:22:59;100680.38;;;17.87;64.87
54194;BME280;40102;50.906;6.972;2023-05-09T09:25:28;100685.88;;;17.97;65.20
54194;BME280;40102;50.906;6.972;2023-05-09T09:27:54;100669.31;;;17.90;64.89
54194;BME280;40102;50.906;6.972;2023-05-09T09:30:22;100673.31;;;17.96;65.71
54194;BME280;40102;50.906;6.972;2023-05-09T09:32:47;100664.53;;;18.03;65.63
54194;BME280;40102;50.906;6.972;2023-05-09T09:35:15;100660.16;;;18.12;65.79
54194;BME280;40102;50.906;6.972;2023-05-09T09:37:42;100664.31;;;18.16;64.80
54194;BME280;40102;50.906;6.972;2023-05-09T09:40:12;100659.75;;;18.17;65.19
54194;BME280;40102;50.906;6.972;2023-05-09T09:42:45;100662.78;;;18.23;66.11
54194;BME280;40102;50.906;6.972;2023-05-09T09:45:14;100664.50;;;18.24;65.59
54194;BME280;40102;50.906;6.972;2023-05-09T09:47:39;100651.53;;;18.28;64.69
54194;BME280;40102;50.906;6.972;2023-05-09T09:50:15;100650.47;;;18.50;65.67
54194;BME280;40102;50.906;6.972;2023-05-09T09:52:51;100642.13;;;18.62;64.94
54194;BME280;40102;50.906;6.972;2023-05-09T09:55:18;100647.00;;;18.68;62.43
54194;BME280;40102;50.906;6.972;2023-05-09T09:57:45;100650.41;;;18.61;62.88
54194;BME280;40102;50.906;6.972;2023-05-09T10:00:18;100632.97;;;18.54;63.04
54194;BME280;40102;50.906;6.972;2023-05-09T10:02:53;100622.97;;;18.54;63.77
54194;BME280;40102;50.906;6.972;2023-05-09T10:07:50;100631.75;;;18.67;64.86
54194;BME280;40102;50.906;6.972;2023-05-09T10:10:17;100636.47;;;18.75;62.45
54194;BME280;40102;50.906;6.972;2023-05-09T10:12:43;100632.53;;;18.58;62.40
54194;BME280;40102;50.906;6.972;2023-05-09T10:15:09;100634.66;;;18.55;62.73
54194;BME280;40102;50.906;6.972;2023-05-09T10:17:36;100619.41;;;18.54;62.31
54194;BME280;40102;50.906;6.972;2023-05-09T10:20:04;100610.84;;;18.49;62.79
54194;BME280;40102;50.906;6.972;2023-05-09T10:22:31;100620.28;;;18.54;63.79
54194;BME280;40102;50.906;6.972;2023-05-09T10:25:02;100618.16;;;18.58;63.60
54194;BME280;40102;50.906;6.972;2023-05-09T10:27:30;100608.16;;;18.58;63.64
54194;BME280;40102;50.906;6.972;2023-05-09T10:30:02;100616.16;;;18.60;62.90
54194;BME280;40102;50.906;6.972;2023-05-09T10:32:39;100605.47;;;18.58;63.08
54194;BME280;40102;50.906;6.972;2023-05-09T10:35:09;100595.81;;;18.65;63.44
54194;BME280;40102;50.906;6.972;2023-05-09T10:37:36;100594.97;;;18.74;64.06
54194;BME280;40102;50.906;6.972;2023-05-09T10:40:02;100587.13;;;18.81;63.10
54194;BME280;40102;50.906;6.972;2023-05-09T10:42:29;100573.28;;;18.84;63.38
54194;BME280;40102;50.906;6.972;2023-05-09T10:44:55;100577.28;;;18.90;64.66
54194;BME280;40102;50.906;6.972;2023-05-09T10:47:21;100573.00;;;18.87;63.12
54194;BME280;40102;50.906;6.972;2023-05-09T10:49:48;100568.59;;;18.86;63.78
54194;BME280;40102;50.906;6.972;2023-05-09T10:52:13;100565.31;;;18.92;63.24
54194;BME280;40102;50.906;6.972;2023-05-09T10:54:39;100567.31;;;18.90;64.23
54194;BME280;40102;50.906;6.972;2023-05-09T10:57:08;100560.59;;;18.94;63.17
54194;BME280;40102;50.906;6.972;2023-05-09T10:59:39;100561.88;;;18.90;62.64
54194;BME280;40102;50.906;6.972;2023-05-09T11:02:10;100548.19;;;18.82;62.66
54194;BME280;40102;50.906;6.972;2023-05-09T11:04:37;100552.34;;;18.76;63.36
54194;BME280;40102;50.906;6.972;2023-05-09T11:07:18;100542.19;;;18.69;63.99
54194;BME280;40102;50.906;6.972;2023-05-09T11:09:50;100543.91;;;18.70;64.13
54194;BME280;40102;50.906;6.972;2023-05-09T11:12:18;100540.50;;;18.77;64.80
54194;BME280;40102;50.906;6.972;2023-05-09T11:14:48;100536.78;;;18.88;65.09
54194;BME280;40102;50.906;6.972;2023-05-09T11:22:20;100519.25;;;18.92;64.89
54194;BME280;40102;50.906;6.972;2023-05-09T11:24:49;100508.13;;;18.95;64.91
54194;BME280;40102;50.906;6.972;2023-05-09T11:27:23;100505.09;;;19.08;65.05
54194;BME280;40102;50.906;6.972;2023-05-09T11:29:58;100503.22;;;19.18;63.96
54194;BME280;40102;50.906;6.972;2023-05-09T11:32:29;100483.72;;;19.05;63.34
54194;BME280;40102;50.906;6.972;2023-05-09T11:35:15;100502.91;;;19.31;63.87
54194;BME280;40102;50.906;6.972;2023-05-09T11:38:01;100464.66;;;19.34;63.17
54194;BME280;40102;50.906;6.972;2023-05-09T11:40:27;100485.44;;;19.62;63.06
54194;BME280;40102;50.906;6.972;2023-05-09T11:42:55;100487.44;;;19.60;61.73
54194;BME280;40102;50.906;6.972;2023-05-09T11:45:22;100490.59;;;19.56;61.78
54194;BME280;40102;50.906;6.972;2023-05-09T11:47:49;100467.91;;;19.47;62.22
54194;BME280;40102;50.906;6.972;2023-05-09T11:50:17;100480.59;;;19.56;61.46
54194;BME280;40102;50.906;6.972;2023-05-09T11:52:43;100460.75;;;19.46;60.96
54194;BME280;40102;50.906;6.972;2023-05-09T11:55:10;100467.19;;;19.45;61.59
54194;BME280;40102;50.906;6.972;2023-05-09T11:57:40;100465.47;;;19.54;62.22
54194;BME280;40102;50.906;6.972;2023-05-09T12:00:06;100458.91;;;19.56;61.69
54194;BME280;40102;50.906;6.972;2023-05-09T12:02:34;100454.63;;;19.54;61.80
54194;BME280;40102;50.906;6.972;2023-05-09T12:05:10;100453.44;;;19.66;62.34
54194;BME280;40102;50.906;6.972;2023-05-09T12:07:37;100437.56;;;19.71;63.44
54194;BME280;40102;50.906;6.972;2023-05-09T12:10:07;100442.47;;;19.85;62.04
54194;BME280;40102;50.906;6.972;2023-05-09T12:12:34;100431.47;;;19.87;62.16
54194;BME280;40102;50.906;6.972;2023-05-09T12:15:06;100432.25;;;19.97;63.16
54194;BME280;40102;50.906;6.972;2023-05-09T12:17:32;100431.56;;;19.95;62.00
54194;BME280;40102;50.906;6.972;2023-05-09T12:19:58;100441.56;;;19.94;60.54
54194;BME280;40102;50.906;6.972;2023-05-09T12:22:24;100432.16;;;19.89;60.71
54194;BME280;40102;50.906;6.972;2023-05-09T12:24:50;100434.09;;;19.79;61.62
54194;BME280;40102;50.906;6.972;2023-05-09T12:27:15;100425.94;;;19.79;60.93
54194;BME280;40102;50.906;6.972;2023-05-09T12:29:43;100424.69;;;19.73;61.26
54194;BME280;40102;50.906;6.972;2023-05-09T12:32:11;100424.53;;;19.75;62.18
54194;BME280;40102;50.906;6.972;2023-05-09T12:34:37;100416.00;;;19.69;62.19
54194;BME280;40102;50.906;6.972;2023-05-09T12:37:02;100415.28;;;19.67;62.34
54194;BME280;40102;50.906;6.972;2023-05-09T12:39:27;100411.97;;;19.73;62.94
54194;BME280;40102;50.906;6.972;2023-05-09T12:41:53;100405.63;;;19.83;63.44
54194;BME280;40102;50.906;6.972;2023-05-09T12:46:52;100399.69;;;19.97;61.78
54194;BME280;40102;50.906;6.972;2023-05-09T12:49:21;100390.38;;;19.99;61.17
54194;BME280;40102;50.906;6.972;2023-05-09T12:51:48;100397.44;;;19.92;58.69
54194;BME280;40102;50.906;6.972;2023-05-09T12:54:28;100383.38;;;19.79;58.32
54194;BME280;40102;50.906;6.972;2023-05-09T12:56:55;100378.56;;;19.73;58.19
54194;BME280;40102;50.906;6.972;2023-05-09T12:59:30;100373.75;;;19.67;58.33
54194;BME280;40102;50.906;6.972;2023-05-09T13:01:57;100385.75;;;19.64;58.26